Time;durP1;ratioP1;P1;durP2;ratioP2;P2;SDS_P1;SDS_P2;PMS_P1;PMS_P2;Temp;Humidity;BMP_temperature;BMP_pressure;BME280_temperature;BME280_humidity;BME280_pressure;Samples;Min_cycle;Max_cycle;Signal;HPM_P1;HPM_P2
2023/04/05 00:00:00;;;;;;;4.33;3.83;;;3.20;99.90;;;;;;4927541;29;20216;-68
2023/04/05 00:02:30;;;;;;;6.67;3.90;;;3.20;99.90;;;;;;4927753;29;20204;-68
2023/04/05 00:04:58;;;;;;;5.00;4.00;;;3.20;99.90;;;;;;4927891;29;20216;-68
2023/04/05 00:07:26;;;;;;;5.47;3.77;;;3.20;99.90;;;;;;4927986;29;20244;-68
2023/04/05 00:09:53;;;;;;;7.73;4.37;;;3.20;99.90;;;;;;4928368;29;20208;-70
2023/04/05 00:12:20;;;;;;;4.90;4.37;;;3.20;99.90;;;;;;4928325;29;20214;-70
2023/04/05 00:14:47;;;;;;;5.67;4.73;;;3.10;99.90;;;;;;4928698;29;20216;-70
2023/04/05 00:17:14;;;;;;;6.53;4.50;;;3.10;99.90;;;;;;4928236;29;20243;-71
2023/04/05 00:19:43;;;;;;;4.60;4.20;;;3.10;99.90;;;;;;4921964;29;20252;-70
2023/04/05 00:22:11;;;;;;;4.47;4.07;;;3.10;99.90;;;;;;4928863;29;20216;-70
2023/04/05 00:24:42;;;;;;;6.03;4.03;;;3.00;99.90;;;;;;4928919;29;20216;-71
2023/04/05 00:27:09;;;;;;;4.67;4.10;;;3.00;99.90;;;;;;4928744;29;20234;-70
2023/04/05 00:29:36;;;;;;;6.07;3.90;;;3.00;99.90;;;;;;4928433;29;20255;-70
2023/04/05 00:32:03;;;;;;;4.20;3.73;;;3.00;99.90;;;;;;4927326;29;20240;-68
2023/04/05 00:34:31;;;;;;;4.47;3.73;;;2.90;99.90;;;;;;4927966;29;20953;-68
2023/04/05 00:36:59;;;;;;;5.33;4.00;;;2.90;99.90;;;;;;4927622;29;20216;-68
2023/04/05 00:39:27;;;;;;;4.07;3.60;;;2.90;99.90;;;;;;4927841;29;20211;-68
2023/04/05 00:41:54;;;;;;;4.23;3.83;;;2.90;99.90;;;;;;4927381;29;20263;-68
2023/04/05 00:44:21;;;;;;;7.30;3.77;;;2.90;99.90;;;;;;4927580;29;20236;-68
2023/04/05 00:46:48;;;;;;;4.07;3.67;;;2.80;99.90;;;;;;4927474;29;20743;-68
2023/04/05 00:49:15;;;;;;;4.50;3.90;;;2.80;99.90;;;;;;4927497;29;20299;-68
2023/04/05 00:51:43;;;;;;;3.83;3.53;;;2.70;99.90;;;;;;4927531;29;20295;-69
2023/04/05 00:54:12;;;;;;;4.20;3.60;;;2.70;99.90;;;;;;4927176;29;20244;-69
2023/04/05 00:56:40;;;;;;;4.90;3.73;;;2.70;99.90;;;;;;4928027;29;20212;-68
2023/04/05 00:59:08;;;;;;;5.73;4.00;;;2.60;99.90;;;;;;4918370;29;21081;-68
2023/04/05 01:01:39;;;;;;;4.10;3.47;;;2.70;99.90;;;;;;4909159;29;20213;-68
2023/04/05 01:04:06;;;;;;;4.43;3.90;;;2.70;99.90;;;;;;4924012;29;20236;-68
2023/04/05 01:06:46;;;;;;;4.87;3.60;;;2.60;99.90;;;;;;4929625;29;20323;-68
2023/04/05 01:09:29;;;;;;;4.30;3.90;;;2.60;99.90;;;;;;4931372;29;20279;-68
2023/04/05 01:11:58;;;;;;;5.47;3.67;;;2.50;99.90;;;;;;4930990;29;20203;-68
2023/04/05 01:14:25;;;;;;;4.37;3.37;;;2.50;99.90;;;;;;4931221;29;20303;-69
2023/04/05 01:16:57;;;;;;;4.40;3.50;;;2.50;99.90;;;;;;4930690;29;20338;-68
2023/04/05 01:19:28;;;;;;;4.30;3.37;;;2.50;99.90;;;;;;4931013;29;20278;-68
2023/04/05 01:22:13;;;;;;;4.33;3.93;;;2.50;99.90;;;;;;4930910;29;20637;-68
2023/04/05 01:25:10;;;;;;;5.07;3.60;;;2.40;99.90;;;;;;4925705;29;20635;-69
2023/04/05 01:27:55;;;;;;;4.77;3.30;;;2.40;99.90;;;;;;4930513;29;20600;-68
2023/04/05 01:30:28;;;;;;;3.67;3.10;;;2.40;99.90;;;;;;4911985;29;20224;-68
2023/04/05 01:33:05;;;;;;;3.97;3.23;;;2.40;99.90;;;;;;4911777;29;20232;-68
2023/04/05 01:35:37;;;;;;;3.83;3.47;;;2.50;99.90;;;;;;4911841;29;20308;-68
2023/04/05 01:38:07;;;;;;;4.30;3.17;;;2.40;99.90;;;;;;4912394;29;20235;-68
2023/04/05 01:40:36;;;;;;;4.20;3.20;;;2.30;99.90;;;;;;4930531;29;20258;-69
2023/04/05 01:43:03;;;;;;;3.80;3.47;;;2.30;99.90;;;;;;4930202;29;20212;-68
2023/04/05 01:45:31;;;;;;;3.77;3.47;;;2.30;99.90;;;;;;4930209;29;20291;-68
2023/04/05 01:47:58;;;;;;;6.10;3.30;;;2.30;99.90;;;;;;4929725;29;20275;-68
2023/04/05 01:50:25;;;;;;;3.57;3.27;;;2.30;99.90;;;;;;4929611;29;20319;-68
2023/04/05 01:52:52;;;;;;;3.63;3.30;;;2.20;99.90;;;;;;4929826;29;20291;-68
2023/04/05 01:55:18;;;;;;;3.33;3.03;;;2.20;99.90;;;;;;4930220;29;20323;-68
2023/04/05 01:57:45;;;;;;;3.70;3.30;;;2.10;99.90;;;;;;4930234;29;20642;-68
2023/04/05 02:00:13;;;;;;;2.90;2.70;;;2.10;99.90;;;;;;4930045;29;20299;-68
2023/04/05 02:02:41;;;;;;;3.80;3.13;;;2.10;99.90;;;;;;4930198;29;20323;-68
2023/04/05 02:05:09;;;;;;;3.17;2.97;;;2.10;99.90;;;;;;4929736;29;20658;-68
2023/04/05 02:07:36;;;;;;;4.90;3.40;;;2.10;99.90;;;;;;4930183;29;20236;-68
2023/04/05 02:10:03;;;;;;;3.57;3.10;;;2.10;99.90;;;;;;4929939;29;20716;-68
2023/04/05 02:12:30;;;;;;;3.97;3.30;;;2.10;99.90;;;;;;4929631;29;20222;-68
2023/04/05 02:14:57;;;;;;;3.20;2.90;;;2.00;99.90;;;;;;4929674;29;20222;-69
2023/04/05 02:17:24;;;;;;;3.40;3.10;;;2.00;99.90;;;;;;4928960;29;20797;-69
2023/04/05 02:19:52;;;;;;;3.83;3.23;;;2.10;99.90;;;;;;4929613;29;20295;-68
2023/04/05 02:22:20;;;;;;;4.20;3.27;;;2.10;99.90;;;;;;4924835;29;20223;-68
2023/04/05 02:24:47;;;;;;;3.53;3.07;;;2.20;99.90;;;;;;4928662;29;20279;-68
2023/04/05 02:27:14;;;;;;;4.03;3.43;;;2.30;99.90;;;;;;4928606;29;20260;-69
2023/04/05 02:29:40;;;;;;;4.63;3.23;;;2.30;99.90;;;;;;4928014;29;20212;-69
2023/04/05 02:32:07;;;;;;;3.87;3.13;;;2.30;99.90;;;;;;4927576;29;20299;-69
2023/04/05 02:34:35;;;;;;;4.60;3.00;;;2.20;99.90;;;;;;4927616;29;20303;-68
2023/04/05 02:37:05;;;;;;;4.00;3.20;;;2.10;99.90;;;;;;4927702;29;20865;-68
2023/04/05 02:39:33;;;;;;;3.87;2.80;;;2.00;99.90;;;;;;4927743;29;20299;-68
2023/04/05 02:42:00;;;;;;;3.20;2.90;;;1.90;99.90;;;;;;4926976;29;20667;-68
2023/04/05 02:44:29;;;;;;;3.30;3.00;;;1.90;99.90;;;;;;4927746;29;20299;-68
2023/04/05 02:46:56;;;;;;;2.97;2.60;;;1.90;99.90;;;;;;4927569;29;20294;-68
2023/04/05 02:49:23;;;;;;;3.17;2.87;;;1.80;99.90;;;;;;4927746;29;20264;-68
2023/04/05 02:51:50;;;;;;;3.40;3.10;;;1.80;99.90;;;;;;4927829;29;20625;-68
2023/04/05 02:54:19;;;;;;;2.80;2.60;;;1.80;99.90;;;;;;4915677;29;20215;-68
2023/04/05 02:56:46;;;;;;;3.53;3.20;;;1.80;99.90;;;;;;4926021;29;20244;-68
2023/04/05 02:59:13;;;;;;;2.80;2.53;;;1.80;99.90;;;;;;4927491;29;20677;-68
2023/04/05 03:01:42;;;;;;;2.50;2.30;;;1.80;99.90;;;;;;4924005;29;20932;-68
2023/04/05 03:04:10;;;;;;;3.10;2.90;;;1.80;99.90;;;;;;4926881;29;20215;-68
2023/04/05 03:06:38;;;;;;;3.43;2.33;;;1.80;99.90;;;;;;4927131;29;20592;-69
2023/04/05 03:09:05;;;;;;;3.37;2.50;;;1.80;99.90;;;;;;4927273;29;20311;-68
2023/04/05 03:11:34;;;;;;;2.67;2.30;;;1.80;99.90;;;;;;4926512;29;20260;-68
2023/04/05 03:14:01;;;;;;;2.40;2.10;;;1.90;99.90;;;;;;4924689;29;20211;-69
2023/04/05 03:16:28;;;;;;;3.17;2.10;;;1.90;99.90;;;;;;4926615;29;20343;-68
2023/04/05 03:18:56;;;;;;;2.40;2.20;;;1.90;99.90;;;;;;4926234;29;20559;-68
2023/04/05 03:21:23;;;;;;;2.13;2.03;;;2.00;99.90;;;;;;4928148;29;20211;-69
2023/04/05 03:23:49;;;;;;;2.73;2.53;;;1.90;99.90;;;;;;4928115;29;20213;-68
2023/04/05 03:26:16;;;;;;;2.40;2.20;;;1.90;99.90;;;;;;4927825;29;20248;-68
2023/04/05 03:28:45;;;;;;;3.83;2.20;;;1.90;99.90;;;;;;4927341;29;20298;-68
2023/04/05 03:31:12;;;;;;;2.57;2.20;;;1.90;99.90;;;;;;4927689;29;20687;-69
2023/04/05 03:33:39;;;;;;;2.43;2.23;;;1.90;99.90;;;;;;4927407;29;21058;-68
2023/04/05 03:36:06;;;;;;;2.57;2.17;;;1.90;99.90;;;;;;4927654;29;20295;-68
2023/04/05 03:38:33;;;;;;;2.30;2.10;;;2.00;99.90;;;;;;4927434;29;20303;-68
2023/04/05 03:41:00;;;;;;;2.20;1.83;;;1.90;99.90;;;;;;4927847;29;20303;-68
2023/04/05 03:43:40;;;;;;;1.70;1.60;;;1.90;99.90;;;;;;4927857;29;20618;-68
2023/04/05 03:46:08;;;;;;;2.63;1.90;;;1.90;99.90;;;;;;4928174;29;20218;-68
2023/04/05 03:48:35;;;;;;;2.03;1.87;;;2.00;99.90;;;;;;4927746;29;20328;-68
2023/04/05 03:51:02;;;;;;;1.97;1.67;;;2.00;99.90;;;;;;4928258;29;20247;-68
2023/04/05 03:53:32;;;;;;;3.47;1.93;;;2.00;99.90;;;;;;4928210;29;20323;-68
2023/04/05 03:55:59;;;;;;;1.83;1.50;;;1.90;99.90;;;;;;4927709;29;20295;-69
2023/04/05 03:58:36;;;;;;;1.73;1.57;;;2.00;99.90;;;;;;4926899;29;20287;-68
2023/04/05 04:01:03;;;;;;;1.63;1.53;;;2.00;99.90;;;;;;4927957;29;20203;-68
2023/04/05 04:03:31;;;;;;;2.13;1.30;;;2.00;99.90;;;;;;4927840;29;20283;-68
2023/04/05 04:05:58;;;;;;;1.83;1.57;;;2.10;99.90;;;;;;4927937;29;20287;-68
2023/04/05 04:08:25;;;;;;;2.67;1.80;;;2.00;99.90;;;;;;4927878;29;20327;-68
2023/04/05 04:10:52;;;;;;;2.80;2.10;;;2.00;99.90;;;;;;4927819;29;20216;-68
2023/04/05 04:13:19;;;;;;;1.53;1.40;;;2.00;99.90;;;;;;4927748;29;20713;-69
2023/04/05 04:15:46;;;;;;;2.00;1.80;;;2.00;99.90;;;;;;4927937;29;20280;-68
2023/04/05 04:18:12;;;;;;;2.03;1.83;;;2.00;99.90;;;;;;4928088;29;20223;-68
2023/04/05 04:20:41;;;;;;;2.00;1.70;;;2.00;99.90;;;;;;4928046;29;20310;-69
2023/04/05 04:23:09;;;;;;;4.37;1.77;;;2.00;99.90;;;;;;4928047;29;20330;-69
2023/04/05 04:25:36;;;;;;;2.53;1.77;;;2.00;99.90;;;;;;4928269;29;20275;-69
2023/04/05 04:28:05;;;;;;;1.70;1.60;;;2.00;99.90;;;;;;4927465;29;20683;-69
2023/04/05 04:30:33;;;;;;;1.90;1.80;;;2.00;99.90;;;;;;4927634;29;20215;-69
2023/04/05 04:33:03;;;;;;;2.60;1.77;;;2.00;99.90;;;;;;4927569;29;20226;-68
2023/04/05 04:35:33;;;;;;;2.77;1.60;;;2.00;99.90;;;;;;4927726;29;20212;-69
2023/04/05 04:38:03;;;;;;;2.00;1.90;;;1.90;99.90;;;;;;4927745;29;20283;-68
2023/04/05 04:40:37;;;;;;;2.47;1.70;;;1.90;99.90;;;;;;4928518;29;20283;-68
2023/04/05 04:43:04;;;;;;;1.67;1.50;;;1.90;99.90;;;;;;4932001;29;20275;-68
2023/04/05 04:45:33;;;;;;;2.33;2.13;;;1.90;99.90;;;;;;4931446;29;20299;-68
2023/04/05 04:48:03;;;;;;;1.80;1.70;;;1.90;99.90;;;;;;4931594;29;20354;-68
2023/04/05 04:50:31;;;;;;;2.60;1.80;;;1.90;99.90;;;;;;4930987;29;20662;-68
2023/04/05 04:53:01;;;;;;;1.97;1.87;;;2.10;99.90;;;;;;4931717;29;20236;-68
2023/04/05 04:55:27;;;;;;;2.33;1.77;;;2.20;99.90;;;;;;4949920;28;20755;-68
2023/04/05 04:57:55;;;;;;;4.23;1.83;;;2.30;99.90;;;;;;4933785;28;20299;-68
2023/04/05 05:00:23;;;;;;;3.60;2.00;;;2.40;99.90;;;;;;4911703;29;20299;-68
2023/04/05 05:02:51;;;;;;;1.73;1.63;;;2.40;99.90;;;;;;4911910;29;20216;-68
2023/04/05 05:05:21;;;;;;;2.47;2.00;;;2.50;99.90;;;;;;4922427;29;20222;-69
2023/04/05 05:07:48;;;;;;;2.20;1.83;;;2.50;99.90;;;;;;4930729;29;20227;-68
2023/04/05 05:10:17;;;;;;;2.97;1.90;;;2.40;99.90;;;;;;4912672;29;20221;-68
2023/04/05 05:12:45;;;;;;;4.63;1.80;;;2.40;99.90;;;;;;4912314;29;20208;-69
2023/04/05 05:15:12;;;;;;;3.83;1.90;;;2.40;99.90;;;;;;4912177;29;20327;-69
2023/04/05 05:17:39;;;;;;;4.50;2.13;;;2.40;99.90;;;;;;4912450;29;20240;-68
2023/04/05 05:20:08;;;;;;;1.90;1.80;;;2.30;99.90;;;;;;4918412;29;20216;-68
2023/04/05 05:22:36;;;;;;;2.67;2.40;;;2.30;99.90;;;;;;4930552;29;20208;-68
2023/04/05 05:25:03;;;;;;;4.60;2.30;;;2.20;99.90;;;;;;4931026;29;20300;-68
2023/04/05 05:27:32;;;;;;;3.03;2.03;;;2.20;99.90;;;;;;4931134;29;20213;-69
2023/04/05 05:29:59;;;;;;;2.43;2.20;;;2.10;99.90;;;;;;4930760;29;20215;-68
2023/04/05 05:32:26;;;;;;;4.30;2.23;;;2.10;99.90;;;;;;4930724;29;20267;-68
2023/04/05 05:34:53;;;;;;;3.00;2.57;;;2.10;99.90;;;;;;4930131;29;20291;-69
2023/04/05 05:37:29;;;;;;;4.30;2.73;;;2.10;99.90;;;;;;4930386;29;20295;-68
2023/04/05 05:39:56;;;;;;;7.20;2.97;;;1.90;99.90;;;;;;4930375;29;20206;-68
2023/04/05 05:42:23;;;;;;;2.93;2.20;;;1.90;99.90;;;;;;4923815;29;20240;-68
2023/04/05 05:44:51;;;;;;;3.10;2.40;;;1.90;99.90;;;;;;4910994;29;20212;-68
2023/04/05 05:47:18;;;;;;;2.43;2.23;;;2.00;99.90;;;;;;4911321;29;20299;-68
2023/04/05 05:49:45;;;;;;;8.33;2.63;;;2.00;99.90;;;;;;4919835;29;20330;-68
2023/04/05 05:52:12;;;;;;;3.43;2.07;;;2.00;99.90;;;;;;4930195;29;20299;-68
2023/04/05 05:54:39;;;;;;;2.53;2.10;;;2.00;99.90;;;;;;4930587;29;20325;-68
2023/04/05 05:57:06;;;;;;;4.17;2.60;;;2.10;99.90;;;;;;4921386;29;20307;-69
2023/04/05 05:59:33;;;;;;;2.50;2.30;;;2.20;99.90;;;;;;4924262;29;20251;-68
2023/04/05 06:02:01;;;;;;;4.80;2.40;;;2.20;99.90;;;;;;4930741;29;20239;-68
2023/04/05 06:04:28;;;;;;;3.07;2.53;;;2.20;99.90;;;;;;4930659;29;20318;-68
2023/04/05 06:06:55;;;;;;;3.27;2.10;;;2.20;99.90;;;;;;4930022;29;20308;-68
2023/04/05 06:09:22;;;;;;;2.40;2.20;;;2.20;99.90;;;;;;4930043;29;20323;-68
2023/04/05 06:11:52;;;;;;;2.53;2.13;;;2.20;99.90;;;;;;4929963;29;20212;-68
2023/04/05 06:14:19;;;;;;;3.30;2.73;;;2.30;99.90;;;;;;4930501;29;20221;-69
2023/04/05 06:16:46;;;;;;;3.30;2.93;;;2.30;99.90;;;;;;4929399;29;20595;-69
2023/04/05 06:19:14;;;;;;;6.07;3.63;;;2.30;99.90;;;;;;4929313;29;20774;-68
2023/04/05 06:21:41;;;;;;;5.20;3.50;;;2.30;99.90;;;;;;4929231;29;20220;-69
2023/04/05 06:24:08;;;;;;;6.13;3.33;;;2.30;99.90;;;;;;4928986;29;20671;-68
2023/04/05 06:26:35;;;;;;;3.20;2.63;;;2.30;99.90;;;;;;4929371;29;20303;-68
2023/04/05 06:29:02;;;;;;;3.73;2.93;;;2.30;99.90;;;;;;4928958;29;20250;-68
2023/04/05 06:31:32;;;;;;;5.07;2.27;;;2.30;99.90;;;;;;4929148;29;20298;-68
2023/04/05 06:33:59;;;;;;;3.03;2.43;;;2.30;99.90;;;;;;4929465;29;20298;-69
2023/04/05 06:36:32;;;;;;;2.50;2.30;;;2.40;99.90;;;;;;4929703;29;21105;-69
2023/04/05 06:39:00;;;;;;;3.57;2.40;;;2.40;99.90;;;;;;4939120;29;20302;-68
2023/04/05 06:41:33;;;;;;;3.20;2.30;;;2.50;99.90;;;;;;4948966;28;20215;-68
2023/04/05 06:44:01;;;;;;;3.90;2.30;;;2.50;99.90;;;;;;4949137;28;20203;-68
2023/04/05 06:46:28;;;;;;;4.93;2.10;;;2.60;99.90;;;;;;4935481;28;20642;-68
2023/04/05 06:48:55;;;;;;;2.50;2.30;;;2.70;99.90;;;;;;4928907;29;20323;-68
2023/04/05 06:51:24;;;;;;;5.47;2.40;;;2.80;99.90;;;;;;4928808;29;20208;-68
2023/04/05 06:53:52;;;;;;;2.57;2.33;;;2.90;99.90;;;;;;4928385;29;20212;-68
2023/04/05 06:56:20;;;;;;;2.50;2.27;;;3.00;99.90;;;;;;4928794;29;20217;-69
2023/04/05 06:58:48;;;;;;;2.40;2.20;;;3.10;99.90;;;;;;4917287;29;20228;-68
2023/04/05 07:01:16;;;;;;;4.70;2.27;;;3.10;99.90;;;;;;4928474;29;20971;-68
2023/04/05 07:03:43;;;;;;;3.83;2.10;;;3.20;99.90;;;;;;4928283;29;20790;-68
2023/04/05 07:06:10;;;;;;;2.83;2.60;;;3.20;99.90;;;;;;4928444;29;20215;-68
2023/04/05 07:08:37;;;;;;;2.67;2.43;;;3.20;99.90;;;;;;4928348;29;20271;-68
2023/04/05 07:11:06;;;;;;;3.10;2.70;;;3.20;99.90;;;;;;4928567;29;20216;-69
2023/04/05 07:13:54;;;;;;;3.87;2.63;;;3.20;99.90;;;;;;4928798;29;20211;-69
2023/04/05 07:16:22;;;;;;;2.70;2.50;;;3.40;99.90;;;;;;4928707;29;20793;-68
2023/04/05 07:18:50;;;;;;;2.63;2.43;;;3.40;99.90;;;;;;4928356;29;20212;-68
2023/04/05 07:21:17;;;;;;;6.80;2.70;;;3.50;99.90;;;;;;4929007;29;20211;-68
2023/04/05 07:23:44;;;;;;;4.73;2.70;;;3.50;99.90;;;;;;4928894;29;20216;-69
2023/04/05 07:26:12;;;;;;;3.10;2.80;;;3.60;99.90;;;;;;4928666;29;20699;-69
2023/04/05 07:28:39;;;;;;;3.03;2.40;;;3.60;99.90;;;;;;4928610;29;20248;-68
2023/04/05 07:31:07;;;;;;;2.50;2.30;;;3.60;99.90;;;;;;4928192;29;20223;-68
2023/04/05 07:33:34;;;;;;;3.00;2.23;;;3.60;99.90;;;;;;4928031;29;20636;-68
2023/04/05 07:36:02;;;;;;;4.87;2.67;;;3.70;99.90;;;;;;4928237;29;20302;-68
2023/04/05 07:38:29;;;;;;;4.60;2.67;;;3.70;99.90;;;;;;4928123;29;20542;-68
2023/04/05 07:40:57;;;;;;;5.77;2.23;;;3.70;99.90;;;;;;4928188;29;20215;-69
2023/04/05 07:43:25;;;;;;;4.60;2.57;;;3.70;99.90;;;;;;4928079;29;20232;-68
2023/04/05 07:45:52;;;;;;;2.83;2.50;;;3.80;99.90;;;;;;4927930;29;20244;-68
2023/04/05 07:48:19;;;;;;;2.33;2.07;;;3.80;99.90;;;;;;4928029;29;20224;-68
2023/04/05 07:50:47;;;;;;;2.97;2.40;;;3.80;99.90;;;;;;4928081;29;20779;-68
2023/04/05 07:53:14;;;;;;;3.40;2.30;;;3.90;99.90;;;;;;4928251;29;20223;-68
2023/04/05 07:55:41;;;;;;;2.90;2.60;;;3.90;99.90;;;;;;4928531;29;20303;-68
2023/04/05 07:58:09;;;;;;;4.00;2.50;;;4.00;99.90;;;;;;4928106;29;20301;-68
2023/04/05 08:00:37;;;;;;;4.13;2.70;;;4.10;99.90;;;;;;4928584;29;20409;-68
2023/04/05 08:03:04;;;;;;;11.03;2.83;;;4.20;99.90;;;;;;4928245;29;20216;-68
2023/04/05 08:05:31;;;;;;;3.90;3.07;;;4.30;99.90;;;;;;4928091;29;20212;-68
2023/04/05 08:07:58;;;;;;;11.20;2.90;;;4.40;99.90;;;;;;4927912;29;20212;-68
2023/04/05 08:10:25;;;;;;;8.63;2.83;;;4.50;99.90;;;;;;4928238;29;20232;-68
2023/04/05 08:12:53;;;;;;;3.20;2.60;;;4.50;99.90;;;;;;4927955;29;20212;-68
2023/04/05 08:15:20;;;;;;;3.27;2.97;;;4.50;99.90;;;;;;4927662;29;20869;-69
2023/04/05 08:17:48;;;;;;;4.80;2.60;;;4.60;99.90;;;;;;4930421;29;20204;-69
2023/04/05 08:20:15;;;;;;;4.47;2.90;;;4.70;99.90;;;;;;4930422;29;20294;-68
2023/04/05 08:22:55;;;;;;;2.90;2.67;;;4.80;99.90;;;;;;4929974;29;20299;-68
2023/04/05 08:25:22;;;;;;;3.57;2.67;;;4.90;99.90;;;;;;4930220;29;20729;-68
2023/04/05 08:27:49;;;;;;;4.20;3.10;;;5.00;99.90;;;;;;4929673;29;20215;-69
2023/04/05 08:30:18;;;;;;;6.23;3.03;;;5.00;99.90;;;;;;4929803;29;20250;-69
2023/04/05 08:32:45;;;;;;;3.40;3.10;;;5.20;99.90;;;;;;4911246;29;20287;-69
2023/04/05 08:35:13;;;;;;;3.80;3.40;;;5.20;99.90;;;;;;4910928;29;20590;-68
2023/04/05 08:37:40;;;;;;;5.10;3.57;;;5.30;99.90;;;;;;4913957;29;20315;-68
2023/04/05 08:40:09;;;;;;;4.73;3.70;;;5.40;99.90;;;;;;4930046;29;20299;-68
2023/04/05 08:42:40;;;;;;;2.93;2.60;;;5.50;99.90;;;;;;4930332;29;20215;-68
2023/04/05 08:45:10;;;;;;;3.50;3.20;;;5.50;99.90;;;;;;4930714;29;20298;-69
2023/04/05 08:47:40;;;;;;;3.67;3.20;;;5.60;99.90;;;;;;4930484;29;20211;-68
2023/04/05 08:50:12;;;;;;;3.53;3.23;;;5.60;99.90;;;;;;4929661;29;21056;-68
2023/04/05 08:52:45;;;;;;;6.17;3.60;;;5.70;99.90;;;;;;4929966;29;20252;-68
2023/04/05 08:55:11;;;;;;;3.43;3.13;;;5.80;99.90;;;;;;4930073;29;20196;-68
2023/04/05 08:57:42;;;;;;;4.97;3.97;;;5.90;99.90;;;;;;4915821;29;20739;-69
2023/04/05 09:00:10;;;;;;;5.57;3.10;;;5.90;99.90;;;;;;4928272;29;20298;-68
2023/04/05 09:02:38;;;;;;;3.67;3.20;;;5.90;99.90;;;;;;4929754;29;20213;-68
2023/04/05 09:05:10;;;;;;;4.37;3.47;;;6.00;99.90;;;;;;4929494;29;20212;-69
2023/04/05 09:07:40;;;;;;;15.70;7.50;;;6.10;99.90;;;;;;4929599;29;20203;-69
2023/04/05 09:10:08;;;;;;;9.13;5.60;;;6.20;99.90;;;;;;4929456;29;20234;-68
2023/04/05 09:12:37;;;;;;;6.87;3.93;;;6.40;99.90;;;;;;4929485;29;20684;-68
2023/04/05 09:15:05;;;;;;;7.10;4.00;;;6.40;99.90;;;;;;4891121;29;1124860;-69
2023/04/05 09:17:33;;;;;;;8.27;5.67;;;6.40;99.90;;;;;;4930844;29;20200;-69
2023/04/05 09:20:00;;;;;;;4.37;3.90;;;6.60;99.90;;;;;;4930319;29;20659;-69
2023/04/05 09:22:27;;;;;;;8.37;4.47;;;6.60;99.90;;;;;;4930802;29;20291;-68
2023/04/05 09:24:56;;;;;;;3.97;3.63;;;6.60;99.90;;;;;;4930642;29;20213;-69
2023/04/05 09:27:23;;;;;;;5.10;3.23;;;6.70;99.90;;;;;;4930509;29;20916;-69
2023/04/05 09:29:50;;;;;;;4.43;3.00;;;6.80;99.90;;;;;;4930726;29;20315;-69
2023/04/05 09:32:19;;;;;;;5.67;3.70;;;6.90;99.90;;;;;;4930235;29;20223;-68
2023/04/05 09:34:46;;;;;;;5.57;3.47;;;7.00;99.90;;;;;;4924861;29;20357;-69
2023/04/05 09:37:15;;;;;;;3.83;3.47;;;7.10;99.90;;;;;;4911314;29;20842;-69
2023/04/05 09:39:43;;;;;;;4.30;3.13;;;7.20;99.90;;;;;;4911515;29;20296;-69
2023/04/05 09:42:14;;;;;;;4.13;3.20;;;7.30;99.90;;;;;;4911138;29;20319;-69
2023/04/05 09:44:51;;;;;;;3.17;2.93;;;7.40;99.90;;;;;;4911174;29;20200;-69
2023/04/05 09:47:19;;;;;;;3.33;3.03;;;7.60;99.90;;;;;;4927254;29;20637;-69
2023/04/05 09:49:46;;;;;;;3.70;2.50;;;7.80;99.90;;;;;;4929748;29;20303;-68
2023/04/05 09:52:21;;;;;;;3.93;3.50;;;7.90;99.90;;;;;;4930198;29;20216;-69
2023/04/05 09:54:49;;;;;;;5.00;3.43;;;8.00;99.90;;;;;;4930387;29;20218;-69
2023/04/05 09:57:18;;;;;;;4.33;3.30;;;8.00;99.90;;;;;;4919759;29;20208;-69
2023/04/05 09:59:46;;;;;;;3.67;2.93;;;8.00;99.90;;;;;;4911231;29;20224;-69
2023/04/05 10:02:13;;;;;;;6.47;2.80;;;8.00;99.90;;;;;;4911545;29;20217;-69
2023/04/05 10:04:41;;;;;;;3.07;2.70;;;8.00;99.90;;;;;;4911282;29;20223;-69
2023/04/05 10:07:10;;;;;;;3.20;2.90;;;8.00;99.90;;;;;;4910770;29;20682;-69
2023/04/05 10:09:38;;;;;;;2.90;2.70;;;7.90;99.90;;;;;;4911060;29;20228;-68
2023/04/05 10:12:06;;;;;;;3.53;2.80;;;7.90;99.90;;;;;;4911085;29;20209;-69
2023/04/05 10:14:35;;;;;;;3.50;2.77;;;7.80;99.90;;;;;;4910935;29;20310;-69
2023/04/05 10:17:10;;;;;;;2.90;2.70;;;7.70;99.90;;;;;;4919386;29;20326;-69
2023/04/05 10:19:50;;;;;;;3.10;2.80;;;7.60;99.90;;;;;;4929534;29;20295;-69
2023/04/05 10:22:24;;;;;;;4.40;2.83;;;7.60;99.90;;;;;;4929449;29;20708;-69
2023/04/05 10:24:55;;;;;;;6.47;2.63;;;7.50;99.90;;;;;;4945494;29;20203;-68
2023/04/05 10:27:27;;;;;;;3.77;2.93;;;7.50;99.90;;;;;;4948658;28;20227;-68
2023/04/05 10:30:07;;;;;;;2.87;2.67;;;7.40;99.90;;;;;;4933106;28;20243;-69
2023/04/05 10:32:54;;;;;;;3.10;2.80;;;7.40;99.90;;;;;;4929242;29;20223;-69
2023/04/05 10:35:28;;;;;;;3.47;2.60;;;7.30;99.90;;;;;;4929191;29;20646;-68
2023/04/05 10:38:12;;;;;;;2.93;2.60;;;7.40;99.90;;;;;;4928981;29;20234;-69
2023/04/05 10:40:43;;;;;;;3.67;2.60;;;7.40;99.90;;;;;;4929851;29;20291;-68
2023/04/05 10:43:16;;;;;;;3.03;2.80;;;7.30;99.90;;;;;;4929349;29;20205;-69
2023/04/05 10:45:48;;;;;;;2.60;2.40;;;7.30;99.90;;;;;;4929660;29;20199;-68
2023/04/05 10:48:21;;;;;;;3.80;2.53;;;7.30;99.90;;;;;;4929343;29;20326;-69
2023/04/05 10:50:48;;;;;;;3.53;2.53;;;7.30;99.90;;;;;;4929252;29;20320;-69
2023/04/05 10:53:16;;;;;;;3.00;2.70;;;7.30;99.90;;;;;;4928914;29;20208;-68
2023/04/05 10:55:45;;;;;;;3.03;2.77;;;7.30;99.90;;;;;;4929419;29;20215;-69
2023/04/05 10:58:14;;;;;;;4.07;2.70;;;7.30;99.90;;;;;;4928870;29;20209;-68
2023/04/05 11:00:42;;;;;;;3.20;2.60;;;7.20;99.90;;;;;;4929191;29;20214;-68
2023/04/05 11:03:10;;;;;;;3.47;3.17;;;7.20;99.90;;;;;;4929124;29;20298;-69
2023/04/05 11:05:38;;;;;;;3.07;2.80;;;7.20;99.90;;;;;;4928643;29;20299;-68
2023/04/05 11:08:07;;;;;;;3.00;2.80;;;7.20;99.90;;;;;;4928801;29;20216;-69
2023/04/05 11:10:39;;;;;;;3.20;2.90;;;7.20;99.90;;;;;;4929159;29;20369;-69
2023/04/05 11:13:09;;;;;;;5.60;2.90;;;7.10;99.90;;;;;;4928701;29;20278;-68
2023/04/05 11:15:36;;;;;;;3.03;2.73;;;7.10;99.90;;;;;;4929053;29;20232;-68
2023/04/05 11:18:06;;;;;;;3.20;2.63;;;7.10;99.90;;;;;;4928954;29;20283;-69
2023/04/05 11:20:50;;;;;;;2.83;2.37;;;7.20;99.90;;;;;;4940821;29;20291;-69
2023/04/05 11:23:19;;;;;;;2.60;2.40;;;7.20;99.90;;;;;;4939001;28;20243;-68
2023/04/05 11:25:49;;;;;;;2.77;2.50;;;7.30;99.90;;;;;;4928430;29;20215;-69
2023/04/05 11:28:24;;;;;;;3.90;2.70;;;7.30;99.90;;;;;;4938822;29;20302;-69
2023/04/05 11:30:52;;;;;;;4.27;2.83;;;7.40;99.90;;;;;;4928383;29;20247;-69
2023/04/05 11:33:53;;;;;;;3.10;2.87;;;7.40;99.90;;;;;;4928717;29;20263;-69
2023/04/05 11:36:32;;;;;;;2.83;2.57;;;7.40;99.90;;;;;;4928820;29;20295;-69
2023/04/05 11:39:32;;;;;;;4.40;2.70;;;7.40;99.90;;;;;;4927953;29;20289;-69
2023/04/05 11:42:05;;;;;;;3.03;2.40;;;7.50;99.90;;;;;;4868695;29;20297;-69
2023/04/05 11:44:44;;;;;;;3.10;2.63;;;7.50;99.90;;;;;;4868901;29;20221;-68
2023/04/05 11:47:11;;;;;;;2.77;2.57;;;7.50;99.90;;;;;;4902125;29;20302;-69
2023/04/05 11:49:38;;;;;;;3.23;2.27;;;7.50;99.90;;;;;;4927819;29;20212;-69
2023/04/05 11:52:15;;;;;;;3.40;2.47;;;7.40;99.90;;;;;;4927606;29;20219;-68
2023/04/05 11:54:45;;;;;;;3.10;2.50;;;7.30;99.90;;;;;;4928412;29;20222;-69
2023/04/05 11:57:14;;;;;;;2.67;2.47;;;7.30;99.90;;;;;;4928043;29;20211;-69
2023/04/05 11:59:42;;;;;;;3.27;2.67;;;7.20;99.90;;;;;;4928411;29;20248;-69
2023/04/05 12:02:09;;;;;;;2.37;2.00;;;7.20;99.90;;;;;;4928029;29;20224;-68
2023/04/05 12:04:37;;;;;;;3.10;2.30;;;7.20;99.90;;;;;;4928303;29;20587;-69
2023/04/05 12:07:17;;;;;;;2.57;2.20;;;7.20;99.90;;;;;;4928074;29;20749;-68
2023/04/05 12:10:07;;;;;;;3.97;2.07;;;7.20;99.90;;;;;;4928332;29;20208;-68
2023/04/05 12:12:37;;;;;;;2.93;2.27;;;7.30;99.90;;;;;;4928174;29;20655;-69
2023/04/05 12:15:07;;;;;;;2.77;2.50;;;7.30;99.90;;;;;;4928448;29;20589;-69
2023/04/05 12:17:45;;;;;;;5.60;2.80;;;7.40;99.90;;;;;;4910879;29;20220;-68
2023/04/05 12:20:13;;;;;;;2.30;2.10;;;7.40;99.90;;;;;;4909182;29;20299;-68
2023/04/05 12:22:47;;;;;;;2.53;2.17;;;7.40;99.90;;;;;;4913145;29;20662;-68
2023/04/05 12:25:14;;;;;;;2.57;2.37;;;7.50;99.90;;;;;;4927897;29;20216;-68
2023/04/05 12:27:42;;;;;;;3.20;2.50;;;7.50;99.90;;;;;;4927847;29;20235;-68
2023/04/05 12:30:15;;;;;;;5.00;2.97;;;7.50;99.90;;;;;;4927724;29;20236;-69
2023/04/05 12:32:46;;;;;;;4.40;2.77;;;7.50;99.90;;;;;;4927578;29;20295;-68
2023/04/05 12:35:17;;;;;;;2.70;2.50;;;7.50;99.90;;;;;;4918390;29;20296;-68
2023/04/05 12:37:46;;;;;;;2.50;2.30;;;7.50;99.90;;;;;;4908413;29;21053;-69
2023/04/05 12:40:13;;;;;;;3.27;2.40;;;7.50;99.90;;;;;;4926662;29;20235;-68
2023/04/05 12:42:41;;;;;;;2.53;2.40;;;7.40;99.90;;;;;;4927871;29;20315;-68
2023/04/05 12:45:11;;;;;;;4.20;2.20;;;7.40;99.90;;;;;;4927494;29;20213;-68
2023/04/05 12:47:49;;;;;;;2.80;2.50;;;7.40;99.90;;;;;;4928081;29;20250;-68
2023/04/05 12:50:18;;;;;;;2.70;2.50;;;7.50;99.90;;;;;;4927465;29;20239;-68
2023/04/05 12:53:00;;;;;;;2.60;2.40;;;7.60;99.90;;;;;;4924853;29;20291;-68
2023/04/05 12:55:29;;;;;;;3.10;2.77;;;7.70;99.90;;;;;;4925438;29;20295;-68
2023/04/05 12:57:59;;;;;;;3.20;2.30;;;7.80;99.90;;;;;;4907365;29;20213;-69
2023/04/05 13:00:27;;;;;;;2.77;2.57;;;8.20;99.90;;;;;;4906939;29;20228;-69
2023/04/05 13:02:55;;;;;;;3.37;2.53;;;8.60;99.90;;;;;;4909301;29;20222;-69
2023/04/05 13:05:24;;;;;;;2.53;2.20;;;8.90;99.90;;;;;;4919617;29;20832;-69
2023/04/05 13:07:53;;;;;;;3.30;2.40;;;9.20;99.90;;;;;;4929539;29;20219;-69